createdAt,value
2016-12-15T00:00:10.986Z,929.4
2016-12-15T00:00:25.763Z,929.41
2016-12-15T00:00:40.258Z,929.44
2016-12-15T00:00:54.699Z,929.5
2016-12-15T00:01:09.227Z,929.48
2016-12-15T00:01:23.837Z,929.48
2016-12-15T00:01:38.438Z,929.46
2016-12-15T00:01:53.015Z,929.55
2016-12-15T00:02:07.493Z,929.52
2016-12-15T00:02:22.061Z,929.53
2016-12-15T00:02:36.581Z,929.45
2016-12-15T00:02:51.166Z,929.61
2016-12-15T00:03:05.640Z,929.54
2016-12-15T00:03:20.069Z,929.55
2016-12-15T00:03:34.581Z,929.56
2016-12-15T00:03:49.018Z,929.62
2016-12-15T00:04:03.516Z,929.55
2016-12-15T00:04:18.116Z,929.58
2016-12-15T00:04:32.678Z,929.54
2016-12-15T00:04:47.317Z,929.52
2016-12-15T00:05:01.983Z,929.54
2016-12-15T00:05:16.365Z,929.61
2016-12-15T00:05:30.931Z,929.54
2016-12-15T00:05:45.625Z,929.57
2016-12-15T00:06:00.154Z,929.53
2016-12-15T00:06:14.802Z,929.53
2016-12-15T00:06:29.325Z,929.59
2016-12-15T00:06:43.985Z,929.66
2016-12-15T00:06:58.631Z,929.61
2016-12-15T00:07:13.171Z,929.55
2016-12-15T00:07:27.582Z,929.59
2016-12-15T00:07:42.005Z,929.59
2016-12-15T00:07:56.603Z,929.59
2016-12-15T00:08:11.241Z,929.61
2016-12-15T00:08:25.632Z,929.51
2016-12-15T00:08:40.101Z,929.64
2016-12-15T00:08:54.717Z,929.58
2016-12-15T00:09:09.288Z,929.55
2016-12-15T00:09:23.735Z,929.61
2016-12-15T00:09:38.264Z,929.57
2016-12-15T00:09:52.946Z,929.57
2016-12-15T00:10:07.469Z,929.62
2016-12-15T00:10:22.017Z,929.56
2016-12-15T00:10:36.498Z,929.57
2016-12-15T00:10:51.041Z,929.6
2016-12-15T00:11:05.512Z,929.61
2016-12-15T00:11:19.903Z,929.59
2016-12-15T00:11:34.353Z,929.57
2016-12-15T00:11:48.839Z,929.59
2016-12-15T00:12:03.198Z,929.63
2016-12-15T00:12:17.668Z,929.66
2016-12-15T00:12:32.160Z,929.59
2016-12-15T00:12:47.350Z,929.59
2016-12-15T00:13:01.759Z,929.6
2016-12-15T00:13:16.170Z,929.59
2016-12-15T00:13:30.693Z,929.58
2016-12-15T00:13:45.320Z,929.56
2016-12-15T00:13:59.855Z,929.54
2016-12-15T00:14:15.040Z,929.6
2016-12-15T00:14:30.407Z,929.64
2016-12-15T00:14:45.053Z,929.66
2016-12-15T00:14:59.521Z,929.63
2016-12-15T00:15:13.979Z,929.59
2016-12-15T00:15:28.538Z,929.63
2016-12-15T00:15:43.134Z,929.63
2016-12-15T00:15:57.890Z,929.62
2016-12-15T00:16:12.360Z,929.66
2016-12-15T00:16:26.859Z,929.6
2016-12-15T00:16:41.362Z,929.62
2016-12-15T00:16:55.855Z,929.65
2016-12-15T00:17:10.373Z,929.59
2016-12-15T00:17:24.842Z,929.61
2016-12-15T00:17:39.279Z,929.64
2016-12-15T00:17:53.883Z,929.64
2016-12-15T00:18:08.565Z,929.66
2016-12-15T00:18:23.121Z,929.57
2016-12-15T00:18:37.625Z,929.65
2016-12-15T00:18:52.230Z,929.64
2016-12-15T00:19:06.779Z,929.57
2016-12-15T00:19:21.388Z,929.56
2016-12-15T00:19:35.828Z,929.73
2016-12-15T00:19:50.391Z,929.63
2016-12-15T00:20:05.447Z,929.59
2016-12-15T00:20:20.130Z,929.64
2016-12-15T00:20:34.531Z,929.61
2016-12-15T00:20:48.963Z,929.54
2016-12-15T00:21:03.356Z,929.55
2016-12-15T00:21:17.897Z,929.57
2016-12-15T00:21:32.457Z,929.57
2016-12-15T00:21:46.917Z,929.6
2016-12-15T00:22:01.482Z,929.63
2016-12-15T00:22:16.141Z,929.57
2016-12-15T00:22:30.682Z,929.56
2016-12-15T00:22:45.282Z,929.56
2016-12-15T00:22:59.923Z,929.55
2016-12-15T00:23:14.403Z,929.56
2016-12-15T00:23:28.927Z,929.6
2016-12-15T00:23:43.539Z,929.55
2016-12-15T00:23:58.042Z,929.62
2016-12-15T00:24:12.589Z,929.62
2016-12-15T00:24:27.161Z,929.61
2016-12-15T00:24:41.659Z,929.6
2016-12-15T00:24:56.104Z,929.57
2016-12-15T00:25:10.564Z,929.64
2016-12-15T00:25:25.048Z,929.65
2016-12-15T00:25:39.462Z,929.63
2016-12-15T00:25:53.888Z,929.61
2016-12-15T00:26:08.401Z,929.64
2016-12-15T00:26:22.818Z,929.65
2016-12-15T00:26:37.308Z,929.66
2016-12-15T00:26:51.720Z,929.69
2016-12-15T00:27:06.168Z,929.67
2016-12-15T00:27:20.599Z,929.73
2016-12-15T00:27:35.001Z,929.7
2016-12-15T00:27:49.580Z,929.74
2016-12-15T00:28:04.376Z,929.75
2016-12-15T00:28:18.807Z,929.77
2016-12-15T00:28:33.301Z,929.72
2016-12-15T00:28:47.684Z,929.68
2016-12-15T00:29:02.193Z,929.76
2016-12-15T00:29:16.720Z,929.77
2016-12-15T00:29:31.183Z,929.77
2016-12-15T00:29:45.594Z,929.75
2016-12-15T00:30:00.068Z,929.8
2016-12-15T00:30:14.492Z,929.8
2016-12-15T00:30:28.971Z,929.77
2016-12-15T00:30:43.422Z,929.76
2016-12-15T00:30:57.780Z,929.75
2016-12-15T00:31:12.391Z,929.74
2016-12-15T00:31:26.851Z,929.72
2016-12-15T00:31:41.266Z,929.73
2016-12-15T00:31:55.741Z,929.77
2016-12-15T00:32:10.123Z,929.73
2016-12-15T00:32:24.537Z,929.76
2016-12-15T00:32:39.033Z,929.79
2016-12-15T00:32:53.564Z,929.74
2016-12-15T00:33:08.092Z,929.77
2016-12-15T00:33:22.649Z,929.74
2016-12-15T00:33:37.053Z,929.73
2016-12-15T00:33:51.506Z,929.69
2016-12-15T00:34:05.949Z,929.77
2016-12-15T00:34:20.351Z,929.79
2016-12-15T00:34:34.746Z,929.8
2016-12-15T00:34:49.160Z,929.93
2016-12-15T00:35:03.770Z,929.78
2016-12-15T00:35:18.169Z,929.77
2016-12-15T00:35:32.620Z,929.78
2016-12-15T00:35:47.025Z,929.81
2016-12-15T00:36:01.518Z,929.79
2016-12-15T00:36:15.976Z,929.86
2016-12-15T00:36:30.416Z,929.69
2016-12-15T00:36:44.747Z,929.78
2016-12-15T00:36:59.173Z,929.75
2016-12-15T00:37:13.480Z,929.76
2016-12-15T00:37:27.803Z,929.77
2016-12-15T00:37:42.283Z,929.72
2016-12-15T00:37:56.704Z,929.79
2016-12-15T00:38:11.135Z,929.82
2016-12-15T00:38:25.592Z,929.82
2016-12-15T00:38:39.987Z,929.78
2016-12-15T00:38:54.378Z,929.8
2016-12-15T00:39:08.730Z,929.78
2016-12-15T00:39:23.226Z,929.83
2016-12-15T00:39:37.598Z,929.73
2016-12-15T00:39:52.058Z,929.78
2016-12-15T00:40:06.545Z,929.82
2016-12-15T00:40:21.017Z,929.92
2016-12-15T00:40:35.534Z,929.85
2016-12-15T00:40:50.059Z,929.79
2016-12-15T00:41:04.500Z,929.88
2016-12-15T00:41:18.997Z,929.91
2016-12-15T00:41:33.415Z,929.89
2016-12-15T00:41:47.822Z,930
2016-12-15T00:42:02.325Z,930.04
2016-12-15T00:42:16.832Z,930.1
2016-12-15T00:42:31.265Z,929.93
2016-12-15T00:42:45.777Z,930.06
2016-12-15T00:43:00.242Z,929.9
2016-12-15T00:43:15.059Z,929.94
2016-12-15T00:43:29.540Z,929.99
2016-12-15T00:43:44.046Z,930.09
2016-12-15T00:43:58.466Z,930.16
2016-12-15T00:44:12.892Z,930.03
2016-12-15T00:44:27.359Z,930.07
2016-12-15T00:44:41.787Z,929.98
2016-12-15T00:44:56.256Z,929.98
2016-12-15T00:45:10.751Z,929.98
2016-12-15T00:45:25.294Z,929.91
2016-12-15T00:45:39.774Z,929.95
2016-12-15T00:45:54.191Z,929.91
2016-12-15T00:46:08.689Z,929.92
2016-12-15T00:46:23.154Z,929.95
2016-12-15T00:46:37.611Z,929.9
2016-12-15T00:46:51.983Z,929.87
2016-12-15T00:47:06.458Z,929.89
2016-12-15T00:47:20.968Z,929.9
2016-12-15T00:47:35.326Z,929.9
2016-12-15T00:47:49.869Z,929.88
2016-12-15T00:48:04.373Z,929.89
2016-12-15T00:48:18.899Z,929.9
2016-12-15T00:48:33.411Z,929.95
2016-12-15T00:48:47.875Z,929.91
2016-12-15T00:49:02.281Z,929.87
2016-12-15T00:49:16.673Z,929.89
2016-12-15T00:49:31.177Z,929.9
2016-12-15T00:49:45.605Z,929.87
2016-12-15T00:49:59.991Z,929.89
2016-12-15T00:50:14.357Z,930
2016-12-15T00:50:28.749Z,929.93
2016-12-15T00:50:43.168Z,929.91
2016-12-15T00:50:57.500Z,929.89
2016-12-15T00:51:11.947Z,929.92
2016-12-15T00:51:26.345Z,929.91
2016-12-15T00:51:40.873Z,929.92
2016-12-15T00:51:55.320Z,929.9
2016-12-15T00:52:09.690Z,929.91
2016-12-15T00:52:24.182Z,929.92
2016-12-15T00:52:38.572Z,929.92
2016-12-15T00:52:53.085Z,929.93
2016-12-15T00:53:07.537Z,929.94
2016-12-15T00:53:21.929Z,929.92
2016-12-15T00:53:36.362Z,929.9
2016-12-15T00:53:50.855Z,929.89
2016-12-15T00:54:05.296Z,929.95
2016-12-15T00:54:19.665Z,929.91
2016-12-15T00:54:34.113Z,929.92
2016-12-15T00:54:48.623Z,929.95
2016-12-15T00:55:03.007Z,929.89
2016-12-15T00:55:17.372Z,929.93
2016-12-15T00:55:31.766Z,929.9
2016-12-15T00:55:46.225Z,929.95
2016-12-15T00:56:00.722Z,929.97
2016-12-15T00:56:15.221Z,929.83
2016-12-15T00:56:29.633Z,929.86
2016-12-15T00:56:44.054Z,929.97
2016-12-15T00:56:58.476Z,929.85
2016-12-15T00:57:12.803Z,929.91
2016-12-15T00:57:27.211Z,929.9
2016-12-15T00:57:41.633Z,929.82
2016-12-15T00:57:56.060Z,929.82
2016-12-15T00:58:10.487Z,929.83
2016-12-15T00:58:25.307Z,929.88
2016-12-15T00:58:39.719Z,929.84
2016-12-15T00:58:54.102Z,929.93
2016-12-15T00:59:08.519Z,929.83
2016-12-15T00:59:22.937Z,929.85
2016-12-15T00:59:37.370Z,929.91
2016-12-15T00:59:51.793Z,929.88
2016-12-15T01:00:06.217Z,929.97
2016-12-15T01:00:20.633Z,929.85
2016-12-15T01:00:35.089Z,929.84
2016-12-15T01:00:49.543Z,929.88
2016-12-15T01:01:03.986Z,929.86
2016-12-15T01:01:18.369Z,929.85
2016-12-15T01:01:32.812Z,929.85
2016-12-15T01:01:47.243Z,929.86
2016-12-15T01:02:01.620Z,929.87
2016-12-15T01:02:16.069Z,929.84
2016-12-15T01:02:30.509Z,929.82
2016-12-15T01:02:44.884Z,929.81
2016-12-15T01:02:59.362Z,929.83
2016-12-15T01:03:13.790Z,929.83
2016-12-15T01:03:28.265Z,929.87
2016-12-15T01:03:42.691Z,929.84
2016-12-15T01:03:57.168Z,929.86
2016-12-15T01:04:11.595Z,929.87
2016-12-15T01:04:26.050Z,929.89
2016-12-15T01:04:40.434Z,929.86
2016-12-15T01:04:54.790Z,929.93
2016-12-15T01:05:09.174Z,929.9
2016-12-15T01:05:23.623Z,929.83
2016-12-15T01:05:37.995Z,929.87
2016-12-15T01:05:52.333Z,929.87
2016-12-15T01:06:06.732Z,929.88
2016-12-15T01:06:21.100Z,929.9
2016-12-15T01:06:35.485Z,929.83
2016-12-15T01:06:49.804Z,929.82
2016-12-15T01:07:04.243Z,929.85
2016-12-15T01:07:18.563Z,929.84
2016-12-15T01:07:32.945Z,929.81
2016-12-15T01:07:47.305Z,929.83
2016-12-15T01:08:01.655Z,929.89
2016-12-15T01:08:16.074Z,929.8
2016-12-15T01:08:30.484Z,929.84
2016-12-15T01:08:44.866Z,929.94
2016-12-15T01:08:59.216Z,929.84
2016-12-15T01:09:13.620Z,929.83
2016-12-15T01:09:27.994Z,929.78
2016-12-15T01:09:42.424Z,929.86
2016-12-15T01:09:56.796Z,929.85
2016-12-15T01:10:11.156Z,929.82
2016-12-15T01:10:25.593Z,929.84
2016-12-15T01:10:40.008Z,929.83
2016-12-15T01:10:54.371Z,929.82
2016-12-15T01:11:08.792Z,929.83
2016-12-15T01:11:23.178Z,929.9
2016-12-15T01:11:37.601Z,929.82
2016-12-15T01:11:51.973Z,929.83
2016-12-15T01:12:06.305Z,929.86
2016-12-15T01:12:20.725Z,929.88
2016-12-15T01:12:35.137Z,929.88
2016-12-15T01:12:49.558Z,929.92
2016-12-15T01:13:03.961Z,929.96
2016-12-15T01:13:18.385Z,929.97
2016-12-15T01:13:33.082Z,929.91
2016-12-15T01:13:47.527Z,929.98
2016-12-15T01:14:01.856Z,929.96
2016-12-15T01:14:16.235Z,929.93
2016-12-15T01:14:30.633Z,929.94
2016-12-15T01:14:45.066Z,929.94
2016-12-15T01:14:59.422Z,929.9
2016-12-15T01:15:13.783Z,929.92
2016-12-15T01:15:28.188Z,929.96
2016-12-15T01:15:42.589Z,929.95
2016-12-15T01:15:57.023Z,929.94
2016-12-15T01:16:11.438Z,929.95
2016-12-15T01:16:25.821Z,929.9
2016-12-15T01:16:40.287Z,929.9
2016-12-15T01:16:54.641Z,929.94
2016-12-15T01:17:09.058Z,929.93
2016-12-15T01:17:23.449Z,929.94
2016-12-15T01:17:37.834Z,929.95
2016-12-15T01:17:52.208Z,930.04
2016-12-15T01:18:06.673Z,929.98
2016-12-15T01:18:21.113Z,929.97
2016-12-15T01:18:35.563Z,929.97
2016-12-15T01:18:49.955Z,929.94
2016-12-15T01:19:04.333Z,929.92
2016-12-15T01:19:18.699Z,929.94
2016-12-15T01:19:33.148Z,930.03
2016-12-15T01:19:47.637Z,929.93
2016-12-15T01:20:02.001Z,929.93
2016-12-15T01:20:16.383Z,929.94
2016-12-15T01:20:30.836Z,929.95
2016-12-15T01:20:45.223Z,929.94
2016-12-15T01:20:59.670Z,929.98
2016-12-15T01:21:14.001Z,929.93
2016-12-15T01:21:28.367Z,929.94
2016-12-15T01:21:42.751Z,929.96
2016-12-15T01:21:57.150Z,929.97
2016-12-15T01:22:11.446Z,929.96
2016-12-15T01:22:25.868Z,929.96
2016-12-15T01:22:40.240Z,929.96
2016-12-15T01:22:54.636Z,930.01
2016-12-15T01:23:08.999Z,929.98
2016-12-15T01:23:23.398Z,929.95
2016-12-15T01:23:37.759Z,929.99
2016-12-15T01:23:52.186Z,929.96
2016-12-15T01:24:06.614Z,929.97
2016-12-15T01:24:21.008Z,929.96
2016-12-15T01:24:35.386Z,929.94
2016-12-15T01:24:49.848Z,929.95
2016-12-15T01:25:04.245Z,929.96
2016-12-15T01:25:18.688Z,929.96
2016-12-15T01:25:33.068Z,929.94
2016-12-15T01:25:47.412Z,930
2016-12-15T01:26:01.780Z,929.98
2016-12-15T01:26:16.109Z,930
2016-12-15T01:26:30.516Z,929.97
2016-12-15T01:26:44.976Z,929.99
2016-12-15T01:26:59.411Z,929.99
2016-12-15T01:27:13.782Z,930
2016-12-15T01:27:28.178Z,930.01
2016-12-15T01:27:42.601Z,929.99
2016-12-15T01:27:57.030Z,929.98
2016-12-15T01:28:11.383Z,930.02
2016-12-15T01:28:25.687Z,929.97
2016-12-15T01:28:40.378Z,929.97
2016-12-15T01:28:54.790Z,929.97
2016-12-15T01:29:09.212Z,930
2016-12-15T01:29:23.665Z,930.03
2016-12-15T01:29:38.069Z,929.96
2016-12-15T01:29:52.523Z,929.97
2016-12-15T01:30:06.957Z,930.01
2016-12-15T01:30:21.333Z,930.01
2016-12-15T01:30:35.753Z,929.97
2016-12-15T01:30:50.081Z,930
2016-12-15T01:31:04.434Z,929.98
2016-12-15T01:31:18.850Z,930
2016-12-15T01:31:33.227Z,929.95
2016-12-15T01:31:47.691Z,930.04
2016-12-15T01:32:02.051Z,930.02
2016-12-15T01:32:16.344Z,929.96
2016-12-15T01:32:30.773Z,930.01
2016-12-15T01:32:45.168Z,930.04
2016-12-15T01:32:59.635Z,929.99
2016-12-15T01:33:14.054Z,929.94
2016-12-15T01:33:28.362Z,929.99
2016-12-15T01:33:42.790Z,930.01
2016-12-15T01:33:57.199Z,930.02
2016-12-15T01:34:11.627Z,929.97
2016-12-15T01:34:26.032Z,929.96
2016-12-15T01:34:40.372Z,929.98
2016-12-15T01:34:54.764Z,930
2016-12-15T01:35:09.117Z,929.99
2016-12-15T01:35:23.516Z,929.96
2016-12-15T01:35:37.890Z,929.95
2016-12-15T01:35:52.366Z,930
2016-12-15T01:36:06.754Z,929.95
2016-12-15T01:36:21.080Z,929.95
2016-12-15T01:36:35.472Z,929.95
2016-12-15T01:36:49.911Z,929.97
2016-12-15T01:37:04.347Z,930
2016-12-15T01:37:18.684Z,929.98
2016-12-15T01:37:33.040Z,929.96
2016-12-15T01:37:47.448Z,929.93
2016-12-15T01:38:01.878Z,929.98
2016-12-15T01:38:16.296Z,929.98
2016-12-15T01:38:30.751Z,929.96
2016-12-15T01:38:45.130Z,929.95
2016-12-15T01:38:59.472Z,929.96
2016-12-15T01:39:13.895Z,930
2016-12-15T01:39:28.284Z,929.99
2016-12-15T01:39:42.704Z,929.96
2016-12-15T01:39:57.085Z,929.97
2016-12-15T01:40:11.425Z,929.95
2016-12-15T01:40:25.921Z,929.99
2016-12-15T01:40:40.380Z,929.95
2016-12-15T01:40:54.948Z,929.96
2016-12-15T01:41:09.300Z,930
2016-12-15T01:41:23.712Z,929.96
2016-12-15T01:41:38.136Z,930.02
2016-12-15T01:41:52.516Z,929.96
2016-12-15T01:42:06.942Z,929.94
2016-12-15T01:42:21.349Z,929.96
2016-12-15T01:42:35.765Z,930.01
2016-12-15T01:42:50.184Z,930.02
2016-12-15T01:43:04.610Z,929.98
2016-12-15T01:43:18.989Z,929.98
2016-12-15T01:43:33.385Z,929.99
2016-12-15T01:43:48.106Z,929.99
2016-12-15T01:44:02.471Z,929.97
2016-12-15T01:44:16.815Z,929.99
2016-12-15T01:44:31.228Z,929.96
2016-12-15T01:44:45.683Z,929.99
2016-12-15T01:45:00.009Z,930
2016-12-15T01:45:14.388Z,930.02
2016-12-15T01:45:28.734Z,930.02
2016-12-15T01:45:43.102Z,930.03
2016-12-15T01:45:57.535Z,929.99
2016-12-15T01:46:11.910Z,929.99
2016-12-15T01:46:26.247Z,929.97
2016-12-15T01:46:40.583Z,930.02
2016-12-15T01:46:54.938Z,929.99
2016-12-15T01:47:09.301Z,929.99
2016-12-15T01:47:23.667Z,930.03
2016-12-15T01:47:38.116Z,930.07
2016-12-15T01:47:52.594Z,930.03
2016-12-15T01:48:07.039Z,930.04
2016-12-15T01:48:21.475Z,930.06
2016-12-15T01:48:35.848Z,930.11
2016-12-15T01:48:50.287Z,930.09
2016-12-15T01:49:04.738Z,930.04
2016-12-15T01:49:19.122Z,930.04
2016-12-15T01:49:33.428Z,929.99
2016-12-15T01:49:47.814Z,930.04
2016-12-15T01:50:02.227Z,930.02
2016-12-15T01:50:16.726Z,930.01
2016-12-15T01:50:31.104Z,930.08
2016-12-15T01:50:45.470Z,930.04
2016-12-15T01:50:59.829Z,930.05
2016-12-15T01:51:14.268Z,930.02
2016-12-15T01:51:28.608Z,930.06
2016-12-15T01:51:43.022Z,930.04
2016-12-15T01:51:57.384Z,929.99
2016-12-15T01:52:11.699Z,930.03
2016-12-15T01:52:26.110Z,929.98
2016-12-15T01:52:40.483Z,930.01
2016-12-15T01:52:54.808Z,929.99
2016-12-15T01:53:09.225Z,930.05
2016-12-15T01:53:23.587Z,929.99
2016-12-15T01:53:37.972Z,929.98
2016-12-15T01:53:52.432Z,929.97
2016-12-15T01:54:06.778Z,929.99
2016-12-15T01:54:21.186Z,929.97
2016-12-15T01:54:35.564Z,929.98
2016-12-15T01:54:50.035Z,930.01
2016-12-15T01:55:04.450Z,930.02
2016-12-15T01:55:18.828Z,929.99
2016-12-15T01:55:33.181Z,930.03
2016-12-15T01:55:47.520Z,930.05
2016-12-15T01:56:01.914Z,930
2016-12-15T01:56:16.319Z,930.02
2016-12-15T01:56:30.690Z,930.03
2016-12-15T01:56:45.112Z,929.99
2016-12-15T01:56:59.501Z,929.95
2016-12-15T01:57:13.853Z,930
2016-12-15T01:57:28.253Z,929.98
2016-12-15T01:57:42.609Z,929.97
2016-12-15T01:57:57.024Z,929.95
2016-12-15T01:58:11.381Z,930
2016-12-15T01:58:25.733Z,929.96
2016-12-15T01:58:40.160Z,929.93
2016-12-15T01:58:55.011Z,929.91
2016-12-15T01:59:09.409Z,929.94
2016-12-15T01:59:23.805Z,929.97
2016-12-15T01:59:38.076Z,929.93
2016-12-15T01:59:52.515Z,929.87
2016-12-15T02:00:06.923Z,929.91
2016-12-15T02:00:21.334Z,929.87
2016-12-15T02:00:35.792Z,929.85
2016-12-15T02:00:50.250Z,929.88
2016-12-15T02:01:04.679Z,929.92
2016-12-15T02:01:19.104Z,929.86
2016-12-15T02:01:33.493Z,929.87
2016-12-15T02:01:47.877Z,929.85
2016-12-15T02:02:02.243Z,929.91
2016-12-15T02:02:16.685Z,929.91
2016-12-15T02:02:31.062Z,929.87
2016-12-15T02:02:45.448Z,929.84
2016-12-15T02:02:59.896Z,929.83
2016-12-15T02:03:14.288Z,929.83
2016-12-15T02:03:28.770Z,929.83
2016-12-15T02:03:43.216Z,929.86
2016-12-15T02:03:57.615Z,929.82
2016-12-15T02:04:12.076Z,929.84
2016-12-15T02:04:26.489Z,929.86
2016-12-15T02:04:40.870Z,929.88
2016-12-15T02:04:55.292Z,929.88
2016-12-15T02:05:09.777Z,929.9
2016-12-15T02:05:24.148Z,929.87
2016-12-15T02:05:38.522Z,929.88
2016-12-15T02:05:52.870Z,929.88
2016-12-15T02:06:07.314Z,929.86
2016-12-15T02:06:21.635Z,929.88
2016-12-15T02:06:36.004Z,929.92
2016-12-15T02:06:50.332Z,929.88
2016-12-15T02:07:04.758Z,929.86
2016-12-15T02:07:19.181Z,929.85
2016-12-15T02:07:33.556Z,929.91
2016-12-15T02:07:47.984Z,929.96
2016-12-15T02:08:02.376Z,929.97
2016-12-15T02:08:16.734Z,929.93
2016-12-15T02:08:31.159Z,929.96
2016-12-15T02:08:45.550Z,929.96
2016-12-15T02:08:59.887Z,929.97
2016-12-15T02:09:14.271Z,929.93
2016-12-15T02:09:28.651Z,929.94
2016-12-15T02:09:42.992Z,929.95
2016-12-15T02:09:57.338Z,929.96
2016-12-15T02:10:11.705Z,929.97
2016-12-15T02:10:26.056Z,929.95
2016-12-15T02:10:40.439Z,929.96
2016-12-15T02:10:54.858Z,929.99
2016-12-15T02:11:09.335Z,929.95
2016-12-15T02:11:23.740Z,929.93
2016-12-15T02:11:38.176Z,929.98
2016-12-15T02:11:52.594Z,929.97
2016-12-15T02:12:07.020Z,929.98
2016-12-15T02:12:21.415Z,929.98
2016-12-15T02:12:35.725Z,929.96
2016-12-15T02:12:50.085Z,929.96
2016-12-15T02:13:04.522Z,929.99
2016-12-15T02:13:18.995Z,930.01
2016-12-15T02:13:33.438Z,929.95
2016-12-15T02:13:47.835Z,930.02
2016-12-15T02:14:02.472Z,930.01
2016-12-15T02:14:16.817Z,929.99
2016-12-15T02:14:31.161Z,929.92
2016-12-15T02:14:45.569Z,929.91
2016-12-15T02:14:59.914Z,929.95
2016-12-15T02:15:14.317Z,929.98
2016-12-15T02:15:28.748Z,930
2016-12-15T02:15:43.193Z,930
2016-12-15T02:15:57.524Z,930.03
2016-12-15T02:16:11.959Z,930.06
2016-12-15T02:16:26.360Z,930.01
2016-12-15T02:16:40.835Z,929.97
2016-12-15T02:16:55.247Z,930.01
2016-12-15T02:17:09.616Z,929.99
2016-12-15T02:17:23.974Z,930
2016-12-15T02:17:38.434Z,930.02
2016-12-15T02:17:52.902Z,930.02
2016-12-15T02:18:07.291Z,930
2016-12-15T02:18:21.738Z,930
2016-12-15T02:18:36.199Z,930.02
2016-12-15T02:18:50.549Z,930.02
2016-12-15T02:19:04.890Z,930.02
2016-12-15T02:19:19.237Z,929.99
2016-12-15T02:19:33.571Z,930.01
2016-12-15T02:19:47.982Z,930.02
2016-12-15T02:20:02.454Z,929.99
2016-12-15T02:20:16.842Z,929.97
2016-12-15T02:20:31.177Z,930.02
2016-12-15T02:20:45.600Z,929.96
2016-12-15T02:20:59.965Z,929.96
2016-12-15T02:21:14.369Z,929.97
2016-12-15T02:21:28.736Z,929.98
2016-12-15T02:21:43.077Z,929.94
2016-12-15T02:21:57.524Z,929.96
2016-12-15T02:22:11.971Z,929.97
2016-12-15T02:22:26.423Z,929.98
2016-12-15T02:22:40.786Z,929.96
2016-12-15T02:22:55.248Z,929.95
2016-12-15T02:23:09.622Z,929.98
2016-12-15T02:23:24.049Z,930.03
2016-12-15T02:23:38.436Z,929.97
2016-12-15T02:23:52.871Z,929.94
2016-12-15T02:24:07.205Z,930.01
2016-12-15T02:24:21.575Z,929.96
2016-12-15T02:24:36.006Z,930.02
2016-12-15T02:24:50.360Z,930
2016-12-15T02:25:04.821Z,929.98
2016-12-15T02:25:19.228Z,930.04
2016-12-15T02:25:33.537Z,930.01
2016-12-15T02:25:47.929Z,930.08
2016-12-15T02:26:02.278Z,930.04
2016-12-15T02:26:16.648Z,930.01
2016-12-15T02:26:31.029Z,930.04
2016-12-15T02:26:45.424Z,930.06
2016-12-15T02:26:59.847Z,930.07
2016-12-15T02:27:14.196Z,930.11
2016-12-15T02:27:28.578Z,930.07
2016-12-15T02:27:42.925Z,930.02
2016-12-15T02:27:57.367Z,930.07
2016-12-15T02:28:11.731Z,930.04
2016-12-15T02:28:26.104Z,930.08
2016-12-15T02:28:40.473Z,930.04
2016-12-15T02:28:54.836Z,930.13
2016-12-15T02:29:09.516Z,930.15
2016-12-15T02:29:23.969Z,930.08
2016-12-15T02:29:38.375Z,930.09
2016-12-15T02:29:52.808Z,930.11
2016-12-15T02:30:07.160Z,929.97
2016-12-15T02:30:21.473Z,930
2016-12-15T02:30:35.836Z,930.06
2016-12-15T02:30:50.200Z,930.05
2016-12-15T02:31:04.565Z,929.99
2016-12-15T02:31:18.942Z,930.01
2016-12-15T02:31:33.374Z,930
2016-12-15T02:31:47.797Z,930.04
2016-12-15T02:32:02.216Z,930.08
2016-12-15T02:32:16.632Z,930.14
2016-12-15T02:32:31.058Z,930.06
2016-12-15T02:32:45.428Z,930.03
2016-12-15T02:32:59.896Z,930.08
2016-12-15T02:33:14.311Z,930.05
2016-12-15T02:33:28.620Z,929.99
2016-12-15T02:33:43.055Z,929.99
2016-12-15T02:33:57.447Z,930
2016-12-15T02:34:11.920Z,930.02
2016-12-15T02:34:26.310Z,930.02
2016-12-15T02:34:40.755Z,929.98
2016-12-15T02:34:55.245Z,929.95
2016-12-15T02:35:09.662Z,929.96
2016-12-15T02:35:24.068Z,930.05
2016-12-15T02:35:38.398Z,929.98
2016-12-15T02:35:52.807Z,930.05
2016-12-15T02:36:07.195Z,929.97
2016-12-15T02:36:21.531Z,930.04
2016-12-15T02:36:35.916Z,930.03
2016-12-15T02:36:50.308Z,930.04
2016-12-15T02:37:04.701Z,930.05
2016-12-15T02:37:19.048Z,930.01
2016-12-15T02:37:33.431Z,929.99
2016-12-15T02:37:47.875Z,930.04
2016-12-15T02:38:02.360Z,930.13
2016-12-15T02:38:16.767Z,930.07
2016-12-15T02:38:31.175Z,929.95
2016-12-15T02:38:45.571Z,930.06
2016-12-15T02:38:59.971Z,930.22
2016-12-15T02:39:14.400Z,930.11
2016-12-15T02:39:28.752Z,930.12
2016-12-15T02:39:43.150Z,930.16
2016-12-15T02:39:57.464Z,930.03
2016-12-15T02:40:11.831Z,929.96
2016-12-15T02:40:26.224Z,929.95
2016-12-15T02:40:40.666Z,929.98
2016-12-15T02:40:55.005Z,929.96
2016-12-15T02:41:09.378Z,929.93
2016-12-15T02:41:23.782Z,929.97
2016-12-15T02:41:38.200Z,929.92
2016-12-15T02:41:52.582Z,929.98
2016-12-15T02:42:06.937Z,929.98
2016-12-15T02:42:21.346Z,929.88
2016-12-15T02:42:35.773Z,929.93
2016-12-15T02:42:50.248Z,930.06
2016-12-15T02:43:04.669Z,929.96
2016-12-15T02:43:19.068Z,930.1
2016-12-15T02:43:33.528Z,929.88
2016-12-15T02:43:47.916Z,929.93
2016-12-15T02:44:02.328Z,929.95
2016-12-15T02:44:16.991Z,929.95
2016-12-15T02:44:31.410Z,929.89
2016-12-15T02:44:45.918Z,930.03
2016-12-15T02:45:00.320Z,929.92
2016-12-15T02:45:14.704Z,929.97
2016-12-15T02:45:29.084Z,929.88
2016-12-15T02:45:43.523Z,929.92
2016-12-15T02:45:57.895Z,929.91
2016-12-15T02:46:12.342Z,929.87
2016-12-15T02:46:26.734Z,929.89
2016-12-15T02:46:41.105Z,929.9
2016-12-15T02:46:55.530Z,930.05
2016-12-15T02:47:09.969Z,929.98
2016-12-15T02:47:24.337Z,929.98
2016-12-15T02:47:38.793Z,929.9
2016-12-15T02:47:53.239Z,929.91
2016-12-15T02:48:07.626Z,929.89
2016-12-15T02:48:22.045Z,929.9
2016-12-15T02:48:36.384Z,929.89
2016-12-15T02:48:50.783Z,929.91
2016-12-15T02:49:05.186Z,929.96
2016-12-15T02:49:19.626Z,929.91
2016-12-15T02:49:34.072Z,929.89
2016-12-15T02:49:48.427Z,930.03
2016-12-15T02:50:02.777Z,930.02
2016-12-15T02:50:17.181Z,929.96
2016-12-15T02:50:31.563Z,929.99
2016-12-15T02:50:45.954Z,930.04
2016-12-15T02:51:00.275Z,930
2016-12-15T02:51:14.655Z,929.94
2016-12-15T02:51:29.030Z,929.92
2016-12-15T02:51:43.434Z,929.98
2016-12-15T02:51:57.824Z,929.92
2016-12-15T02:52:12.181Z,929.94
2016-12-15T02:52:26.677Z,929.87
2016-12-15T02:52:41.092Z,929.9
2016-12-15T02:52:55.479Z,929.93
2016-12-15T02:53:09.874Z,929.9
2016-12-15T02:53:24.193Z,930
2016-12-15T02:53:38.628Z,929.87
2016-12-15T02:53:53.013Z,929.88
2016-12-15T02:54:07.407Z,929.99
2016-12-15T02:54:21.882Z,929.92
2016-12-15T02:54:36.305Z,929.88
2016-12-15T02:54:50.703Z,930
2016-12-15T02:55:05.090Z,929.9
2016-12-15T02:55:19.513Z,929.87
2016-12-15T02:55:33.914Z,929.94
2016-12-15T02:55:48.390Z,929.9
2016-12-15T02:56:02.803Z,929.88
2016-12-15T02:56:17.167Z,929.91
2016-12-15T02:56:31.587Z,929.92
2016-12-15T02:56:45.954Z,929.86
2016-12-15T02:57:00.349Z,929.87
2016-12-15T02:57:14.752Z,929.88
2016-12-15T02:57:29.171Z,929.91
2016-12-15T02:57:43.589Z,929.84
2016-12-15T02:57:57.976Z,929.9
2016-12-15T02:58:12.307Z,929.93
2016-12-15T02:58:26.667Z,929.9
2016-12-15T02:58:41.075Z,929.88
2016-12-15T02:58:55.501Z,929.92
2016-12-15T02:59:09.911Z,929.87
2016-12-15T02:59:24.654Z,929.98
2016-12-15T02:59:39.084Z,929.88
2016-12-15T02:59:53.484Z,929.85
2016-12-15T03:00:07.827Z,929.82
2016-12-15T03:00:22.224Z,929.94
2016-12-15T03:00:36.689Z,929.91
2016-12-15T03:00:51.057Z,929.91
2016-12-15T03:01:05.446Z,929.86